TimeEDT,TemperatureF,Dew PointF,Humidity,Sea Level PressureIn,VisibilityMPH,Wind Direction,Wind SpeedMPH,Gust SpeedMPH,PrecipitationIn,Events,Conditions,WindDirDegrees,DateUTC
12:56 AM,64.9,63.9,96,29.99,6.0,Variable,3.5,-,N/A,,Mostly Cloudy,0,2013-08-01 04:56:00
1:56 AM,64.9,63.9,96,29.97,8.0,Variable,3.5,-,N/A,,Scattered Clouds,0,2013-08-01 05:56:00
2:56 AM,64.9,63.0,93,29.94,8.0,Variable,3.5,-,N/A,,Scattered Clouds,0,2013-08-01 06:56:00
3:21 AM,64.4,62.6,94,29.92,8.0,SSW,3.5,-,N/A,,Mostly Cloudy,200,2013-08-01 07:21:00
3:38 AM,64.4,62.6,94,29.91,7.0,South,4.6,-,N/A,,Mostly Cloudy,190,2013-08-01 07:38:00
3:56 AM,64.9,63.0,93,29.94,9.0,Variable,4.6,-,N/A,,Overcast,0,2013-08-01 07:56:00
4:56 AM,64.9,63.9,96,29.93,7.0,Variable,3.5,-,N/A,,Overcast,0,2013-08-01 08:56:00
5:56 AM,64.9,63.9,96,29.92,3.0,Variable,4.6,-,0.01,,Overcast,0,2013-08-01 09:56:00
6:04 AM,64.4,64.4,100,29.89,1.8,Variable,3.5,-,0.02,Rain,Light Rain,0,2013-08-01 10:04:00
6:16 AM,64.4,64.4,100,29.89,3.0,Calm,Calm,-,0.02,Rain,Light Rain,0,2013-08-01 10:16:00
6:32 AM,64.4,64.4,100,29.89,3.0,South,4.6,-,0.02,,Overcast,190,2013-08-01 10:32:00
6:40 AM,64.4,64.4,100,29.89,2.0,Variable,3.5,-,0.02,,Overcast,0,2013-08-01 10:40:00
6:56 AM,64.9,64.9,100,29.93,3.0,SW,3.5,-,0.02,,Overcast,230,2013-08-01 10:56:00
7:25 AM,64.4,64.4,100,29.91,2.5,SSW,3.5,-,N/A,,Overcast,200,2013-08-01 11:25:00
7:44 AM,64.4,64.4,100,29.91,4.0,SSW,3.5,-,N/A,,Overcast,200,2013-08-01 11:44:00
7:56 AM,64.9,64.9,100,29.94,4.0,SSW,4.6,-,N/A,,Overcast,210,2013-08-01 11:56:00
8:56 AM,66.9,64.9,93,29.95,10.0,West,6.9,-,N/A,,Mostly Cloudy,280,2013-08-01 12:56:00
9:12 AM,69.8,64.4,83,29.92,10.0,West,4.6,-,N/A,,Mostly Cloudy,280,2013-08-01 13:12:00
9:56 AM,70.0,63.9,81,29.95,10.0,WNW,9.2,-,N/A,,Mostly Cloudy,290,2013-08-01 13:56:00
10:56 AM,71.6,62.6,73,29.93,10.0,West,9.2,-,N/A,,Mostly Cloudy,280,2013-08-01 14:56:00
11:04 AM,71.6,62.6,73,29.93,10.0,WNW,8.1,-,N/A,,Scattered Clouds,290,2013-08-01 15:04:00
11:56 AM,73.9,61.9,66,29.96,10.0,WNW,8.1,-,N/A,,Scattered Clouds,290,2013-08-01 15:56:00
12:56 PM,75.9,61.9,62,29.95,10.0,WNW,6.9,-,N/A,,Partly Cloudy,290,2013-08-01 16:56:00
1:56 PM,78.8,62.6,57,29.92,10.0,WSW,8.1,-,N/A,,Scattered Clouds,240,2013-08-01 17:56:00
2:56 PM,79.9,63.9,58,29.94,10.0,West,8.1,-,N/A,,Scattered Clouds,280,2013-08-01 18:56:00
3:56 PM,77.9,61.0,56,29.93,10.0,West,5.8,-,N/A,,Scattered Clouds,280,2013-08-01 19:56:00
4:56 PM,74.8,63.0,66,29.94,10.0,NNW,5.8,-,N/A,,Scattered Clouds,330,2013-08-01 20:56:00
5:56 PM,75.9,61.0,60,29.94,10.0,NNW,8.1,-,N/A,,Partly Cloudy,340,2013-08-01 21:56:00
6:56 PM,74.8,61.0,62,29.94,10.0,Variable,5.8,-,N/A,,Partly Cloudy,0,2013-08-01 22:56:00
7:56 PM,72.0,59.0,64,29.96,10.0,North,5.8,-,N/A,,Scattered Clouds,350,2013-08-01 23:56:00
8:56 PM,65.8,59.0,79,29.96,10.0,Calm,Calm,-,N/A,,Clear,0,2013-08-02 00:56:00
9:56 PM,63.0,59.0,87,29.97,10.0,Calm,Calm,-,N/A,,Partly Cloudy,0,2013-08-02 01:56:00
10:56 PM,61.0,59.0,93,29.99,10.0,Calm,Calm,-,N/A,,Clear,0,2013-08-02 02:56:00
11:56 PM,59.9,59.0,97,29.99,9.0,Calm,Calm,-,N/A,,Partly Cloudy,0,2013-08-02 03:56:00